Remington, Indiana
Current Conditions -  °F | °C
As of 6:55 PM on Monday 26 Jan 2015 (Local Time) from KRZL Reporting Station
Overcast Overcast  
Wind Chill: 24°   Ceiling: 2200
Heat Index: 30°   Visibility: 10mi
Dew Point: 27°   Wind: 6mph
Humidity: 86%   Direction: 190°S
Pressure: 29.92"   Gusts: NA
Location:  40.76°N, 87.15°W
Report Text: KRZL 270055Z AUTO 19005KT 10SM SCT018 BKN022 OVC041 M01/M03 A2992 RMK AO2
Loading
Personal Weather Stations






























Interactive Weather Map New forecast layout! Learn more

10-Day Weather Forecast

Advertisements
Track Severe Weather on mobile